createdAt,value
2023-03-03T00:04:06.259Z,21.10
2023-03-03T00:09:08.986Z,22.10
2023-03-03T00:14:23.004Z,20.98
2023-03-03T00:19:27.114Z,20.90
2023-03-03T00:24:38.308Z,21.35
2023-03-03T00:29:45.921Z,19.42
2023-03-03T00:34:51.076Z,19.93
2023-03-03T00:39:53.883Z,20.38
2023-03-03T00:45:00.632Z,20.15
2023-03-03T00:50:30.566Z,20.58
2023-03-03T00:55:35.373Z,21.55
2023-03-03T01:00:39.997Z,21.05
2023-03-03T01:05:46.229Z,19.67
2023-03-03T01:10:51.828Z,21.00
2023-03-03T01:15:55.226Z,19.88
2023-03-03T01:20:59.518Z,20.70
2023-03-03T01:26:02.690Z,20.48
2023-03-03T01:31:06.775Z,21.73
2023-03-03T01:36:11.605Z,21.63
2023-03-03T01:41:14.309Z,21.25
2023-03-03T01:46:44.113Z,21.23
2023-03-03T01:51:51.958Z,20.90
2023-03-03T01:57:00.360Z,21.55
2023-03-03T02:02:03.144Z,19.50
2023-03-03T02:07:11.007Z,20.05
2023-03-03T02:12:17.710Z,19.67
2023-03-03T02:17:21.019Z,18.05
2023-03-03T02:22:45.209Z,19.08
2023-03-03T02:27:49.347Z,17.63
2023-03-03T02:32:52.212Z,19.10
2023-03-03T02:37:57.848Z,18.80
2023-03-03T02:43:05.963Z,18.83
2023-03-03T02:48:08.805Z,18.30
2023-03-03T02:53:11.572Z,17.70
2023-03-03T02:58:16.619Z,17.60
2023-03-03T03:03:19.502Z,17.02
2023-03-03T03:08:23.239Z,17.80
2023-03-03T03:13:28.203Z,18.80
2023-03-03T03:18:31.169Z,16.63
2023-03-03T03:23:35.688Z,17.27
2023-03-03T03:28:40.257Z,16.23
2023-03-03T03:33:43.470Z,16.33
2023-03-03T03:38:47.389Z,16.33
2023-03-03T03:43:51.616Z,16.40
2023-03-03T03:48:54.602Z,16.67
2023-03-03T03:53:57.940Z,16.60
2023-03-03T03:59:02.415Z,16.45
2023-03-03T04:04:05.494Z,15.20
2023-03-03T04:09:08.806Z,15.52
2023-03-03T04:14:13.137Z,15.40
2023-03-03T04:19:15.934Z,17.50
2023-03-03T04:24:19.761Z,16.85
2023-03-03T04:29:26.423Z,17.20
2023-03-03T04:34:29.541Z,17.50
2023-03-03T04:39:32.681Z,19.80
2023-03-03T04:44:36.853Z,19.55
2023-03-03T04:49:40.169Z,19.35
2023-03-03T04:54:43.137Z,19.20
2023-03-03T04:59:47.608Z,20.58
2023-03-03T05:04:50.486Z,21.48
2023-03-03T05:09:53.402Z,21.05
2023-03-03T05:14:57.517Z,21.05
2023-03-03T05:20:00.332Z,20.60
2023-03-03T05:25:03.055Z,20.20
2023-03-03T05:30:08.612Z,20.05
2023-03-03T05:35:11.577Z,19.88
2023-03-03T05:40:15.317Z,20.70
2023-03-03T05:45:21.263Z,20.70
2023-03-03T05:50:24.875Z,21.80
2023-03-03T05:55:27.662Z,22.80
2023-03-03T06:00:31.787Z,21.20
2023-03-03T06:05:34.735Z,20.83
2023-03-03T06:10:37.535Z,20.23
2023-03-03T06:15:44.394Z,19.83
2023-03-03T06:20:47.148Z,18.88
2023-03-03T06:25:50.444Z,17.90
2023-03-03T06:30:56.115Z,18.15
2023-03-03T06:35:58.927Z,16.70
2023-03-03T06:41:02.496Z,16.60
2023-03-03T06:46:07.457Z,16.80
2023-03-03T06:51:23.670Z,17.98
2023-03-03T06:56:27.666Z,14.27
2023-03-03T07:01:36.163Z,15.32
2023-03-03T07:06:39.005Z,18.27
2023-03-03T07:11:41.834Z,18.13
2023-03-03T07:16:46.383Z,18.73
2023-03-03T07:21:49.348Z,18.75
2023-03-03T07:26:52.683Z,17.50
2023-03-03T07:31:58.188Z,17.27
2023-03-03T07:37:06.311Z,18.52
2023-03-03T07:42:26.163Z,16.90
2023-03-03T07:47:38.670Z,18.58
2023-03-03T07:52:42.922Z,16.02
2023-03-03T07:57:47.114Z,17.02
2023-03-03T08:02:58.509Z,14.02
2023-03-03T08:08:17.807Z,14.98
2023-03-03T08:13:22.389Z,14.20
2023-03-03T08:18:29.886Z,13.82
2023-03-03T08:23:32.658Z,15.77
2023-03-03T08:28:35.425Z,15.07
2023-03-03T08:33:40.055Z,17.70
2023-03-03T08:38:42.969Z,17.88
2023-03-03T08:43:46.085Z,15.40
2023-03-03T08:48:50.407Z,12.70
2023-03-03T08:53:53.230Z,13.02
2023-03-03T08:59:03.482Z,14.43
2023-03-03T09:04:08.024Z,15.95
2023-03-03T09:09:10.782Z,17.45
2023-03-03T09:14:15.052Z,23.00
2023-03-03T09:19:24.204Z,13.13
2023-03-03T09:24:28.411Z,13.43
2023-03-03T09:29:32.947Z,13.38
2023-03-03T09:34:42.367Z,13.38
2023-03-03T09:39:47.504Z,13.55
2023-03-03T09:45:19.516Z,15.82
2023-03-03T09:50:36.941Z,15.40
2023-03-03T09:55:48.928Z,18.17
2023-03-03T10:01:00.496Z,13.48
2023-03-03T10:06:10.138Z,12.00
2023-03-03T10:11:21.335Z,14.70
2023-03-03T10:16:40.890Z,11.18
2023-03-03T10:21:52.121Z,15.20
2023-03-03T10:27:14.558Z,8.43
2023-03-03T10:32:34.062Z,11.18
2023-03-03T10:37:49.819Z,10.73
2023-03-03T10:43:13.691Z,12.88
2023-03-03T10:48:39.920Z,11.05
2023-03-03T10:53:50.022Z,11.65
2023-03-03T10:59:04.756Z,10.30
2023-03-03T11:04:30.338Z,10.40
2023-03-03T11:09:51.809Z,12.00
2023-03-03T11:15:12.381Z,9.02
2023-03-03T11:20:29.549Z,7.95
2023-03-03T11:25:40.897Z,7.25
2023-03-03T11:31:03.317Z,10.07
2023-03-03T11:36:13.480Z,7.82
2023-03-03T11:41:28.907Z,8.85
2023-03-03T11:46:37.684Z,8.40
2023-03-03T11:51:50.145Z,8.50
2023-03-03T11:56:59.760Z,8.85
2023-03-03T12:02:12.027Z,8.52
2023-03-03T12:07:26.520Z,9.80
2023-03-03T12:12:35.939Z,9.45
2023-03-03T12:18:03.643Z,9.18
2023-03-03T12:23:19.750Z,8.43
2023-03-03T12:28:27.087Z,7.30
2023-03-03T12:33:40.266Z,6.35
2023-03-03T12:38:52.025Z,6.72
2023-03-03T12:44:03.668Z,5.55
2023-03-03T12:49:06.452Z,5.00
2023-03-03T12:54:37.480Z,3.85
2023-03-03T12:59:53.203Z,3.40
2023-03-03T13:05:01.849Z,3.05
2023-03-03T13:10:16.462Z,2.92
2023-03-03T13:15:31.688Z,2.55
2023-03-03T13:20:45.622Z,2.20
2023-03-03T13:25:54.148Z,1.65
2023-03-03T13:31:04.085Z,1.50
2023-03-03T13:36:10.213Z,1.50
2023-03-03T13:41:21.732Z,1.60
2023-03-03T13:46:39.513Z,1.50
2023-03-03T13:51:48.758Z,1.67
2023-03-03T13:57:15.391Z,1.80
2023-03-03T14:02:42.382Z,2.30
2023-03-03T14:07:53.252Z,2.53
2023-03-03T14:13:04.434Z,1.77
2023-03-03T14:18:22.780Z,1.70
2023-03-03T14:23:32.505Z,1.30
2023-03-03T14:28:41.228Z,1.33
2023-03-03T14:33:57.412Z,1.65
2023-03-03T14:39:00.923Z,1.30
2023-03-03T14:44:25.022Z,0.95
2023-03-03T14:49:33.352Z,1.30
2023-03-03T14:54:40.388Z,1.08
2023-03-03T14:59:56.867Z,1.30
2023-03-03T15:05:23.111Z,1.10
2023-03-03T15:10:34.921Z,1.40
2023-03-03T15:15:53.701Z,1.38
2023-03-03T15:26:10.865Z,1.63
2023-03-03T15:31:26.198Z,2.15
2023-03-03T15:36:40.191Z,1.42
2023-03-03T15:41:45.958Z,1.60
2023-03-03T15:47:05.611Z,1.80
2023-03-03T15:52:23.637Z,2.35
2023-03-03T15:57:42.045Z,1.60
2023-03-03T16:02:53.727Z,2.08
2023-03-03T16:08:06.060Z,1.98
2023-03-03T16:13:23.486Z,1.77
2023-03-03T16:18:38.857Z,2.35
2023-03-03T16:23:48.825Z,2.30
2023-03-03T16:29:08.644Z,1.90
2023-03-03T16:34:19.360Z,2.00
2023-03-03T16:39:31.005Z,2.00
2023-03-03T16:44:43.246Z,2.47
2023-03-03T16:49:53.352Z,2.17
2023-03-03T16:55:04.115Z,2.20
2023-03-03T17:00:13.214Z,2.08
2023-03-03T17:05:29.170Z,3.00
2023-03-03T17:10:37.956Z,2.20
2023-03-03T17:15:49.518Z,3.58
2023-03-03T17:20:57.346Z,3.17
2023-03-03T17:26:09.884Z,3.40
2023-03-03T17:31:22.413Z,2.35
2023-03-03T17:36:37.215Z,3.15
2023-03-03T17:41:47.236Z,2.70
2023-03-03T17:46:54.979Z,3.55
2023-03-03T17:52:21.252Z,2.50
2023-03-03T17:57:36.617Z,2.45
2023-03-03T18:02:54.356Z,2.83
2023-03-03T18:08:12.672Z,2.67
2023-03-03T18:13:34.421Z,2.92
2023-03-03T18:18:55.342Z,2.55
2023-03-03T18:24:27.775Z,2.55
2023-03-03T18:29:32.546Z,3.40
2023-03-03T18:34:38.135Z,2.67
2023-03-03T18:39:45.585Z,3.25
2023-03-03T18:44:49.950Z,2.97
2023-03-03T18:49:59.285Z,3.60
2023-03-03T18:55:20.834Z,2.92
2023-03-03T19:00:30.139Z,2.67
2023-03-03T19:05:47.238Z,3.90
2023-03-03T19:10:53.514Z,3.30
2023-03-03T19:15:59.750Z,2.60
2023-03-03T19:21:05.630Z,3.78
2023-03-03T19:26:38.164Z,3.47
2023-03-03T19:31:48.144Z,3.40
2023-03-03T19:37:12.510Z,4.45
2023-03-03T19:42:25.999Z,3.95
2023-03-03T19:47:39.737Z,3.50
2023-03-03T19:52:47.773Z,3.88
2023-03-03T19:57:59.833Z,3.50
2023-03-03T20:03:34.984Z,3.55
2023-03-03T20:08:44.984Z,4.53
2023-03-03T20:13:59.667Z,4.32
2023-03-03T20:19:17.412Z,3.80
2023-03-03T20:24:42.502Z,3.53
2023-03-03T20:30:03.351Z,3.58
2023-03-03T20:35:21.114Z,4.25
2023-03-03T20:40:34.092Z,3.97
2023-03-03T20:45:49.779Z,4.63
2023-03-03T20:51:03.452Z,3.55
2023-03-03T20:56:14.435Z,3.60
2023-03-03T21:01:28.336Z,3.30
2023-03-03T21:06:40.759Z,3.78
2023-03-03T21:11:44.993Z,3.80
2023-03-03T21:16:48.086Z,2.45
2023-03-03T21:21:53.212Z,2.45
2023-03-03T21:26:57.069Z,3.28
2023-03-03T21:32:01.222Z,2.75
2023-03-03T21:37:07.081Z,3.25
2023-03-03T21:42:12.014Z,3.30
2023-03-03T21:47:16.353Z,3.78
2023-03-03T21:52:21.829Z,2.85
2023-03-03T21:57:25.023Z,3.20
2023-03-03T22:02:27.820Z,3.08
2023-03-03T22:07:32.015Z,2.83
2023-03-03T22:12:34.718Z,4.00
2023-03-03T22:17:37.474Z,2.80
2023-03-03T22:22:41.519Z,4.22
2023-03-03T22:27:44.249Z,3.40
2023-03-03T22:32:46.983Z,3.08
2023-03-03T22:37:51.056Z,2.90
2023-03-03T22:42:53.782Z,3.30
2023-03-03T22:47:56.542Z,2.90
2023-03-03T22:53:00.642Z,2.67
2023-03-03T22:58:03.710Z,2.78
2023-03-03T23:03:06.940Z,2.90
2023-03-03T23:08:14.904Z,3.17
2023-03-03T23:13:17.857Z,2.60
2023-03-03T23:18:20.582Z,2.22
2023-03-03T23:23:25.344Z,2.45
2023-03-03T23:28:28.353Z,2.33
2023-03-03T23:33:31.089Z,2.35
2023-03-03T23:38:35.186Z,2.78
2023-03-03T23:43:37.937Z,2.88
2023-03-03T23:48:40.695Z,3.10
2023-03-03T23:53:44.778Z,2.88
2023-03-03T23:58:47.681Z,2.97
